createdAt,value
2019-03-21T00:01:45.623Z,11.33
2019-03-21T00:06:49.995Z,10.10
2019-03-21T00:12:02.072Z,7.63
2019-03-21T00:17:09.190Z,5.43
2019-03-21T00:22:13.596Z,5.33
2019-03-21T00:27:17.959Z,10.50
2019-03-21T00:32:22.394Z,8.00
2019-03-21T00:37:26.744Z,8.37
2019-03-21T00:42:31.075Z,8.83
2019-03-21T00:47:35.452Z,6.53
2019-03-21T00:52:39.903Z,8.03
2019-03-21T00:57:44.284Z,8.13
2019-03-21T01:02:48.618Z,8.23
2019-03-21T01:07:52.978Z,7.67
2019-03-21T01:12:57.519Z,7.63
2019-03-21T01:18:01.909Z,7.53
2019-03-21T01:23:06.345Z,11.70
2019-03-21T01:28:10.720Z,7.03
2019-03-21T01:33:15.063Z,10.40
2019-03-21T01:38:19.441Z,9.00
2019-03-21T01:43:23.852Z,10.50
2019-03-21T01:48:28.221Z,8.23
2019-03-21T01:53:32.571Z,8.80
2019-03-21T01:58:36.934Z,9.03
2019-03-21T02:03:41.303Z,8.60
2019-03-21T02:08:45.668Z,8.90
2019-03-21T02:13:50.015Z,7.13
2019-03-21T02:18:55.344Z,6.23
2019-03-21T02:23:59.754Z,9.63
2019-03-21T02:29:04.129Z,10.87
2019-03-21T02:34:08.521Z,9.27
2019-03-21T02:39:12.826Z,9.47
2019-03-21T02:44:17.169Z,7.93
2019-03-21T02:49:21.511Z,7.13
2019-03-21T02:54:25.848Z,7.97
2019-03-21T02:59:30.240Z,7.93
2019-03-21T03:04:34.595Z,7.60
2019-03-21T03:09:38.932Z,9.83
2019-03-21T03:14:43.297Z,10.03
2019-03-21T03:19:47.634Z,7.70
2019-03-21T03:24:52.007Z,6.33
2019-03-21T03:29:56.436Z,7.50
2019-03-21T03:35:01.189Z,8.40
2019-03-21T03:40:11.922Z,7.70
2019-03-21T03:45:38.072Z,10.43
2019-03-21T03:50:39.944Z,8.13
2019-03-21T03:55:44.367Z,8.57
2019-03-21T04:00:48.748Z,9.67
2019-03-21T04:05:53.195Z,8.43
2019-03-21T04:10:58.417Z,11.53
2019-03-21T04:16:02.842Z,11.47
2019-03-21T04:21:12.586Z,7.57
2019-03-21T04:26:26.274Z,8.93
2019-03-21T04:31:30.733Z,8.53
2019-03-21T04:36:35.173Z,10.77
2019-03-21T04:41:41.518Z,8.47
2019-03-21T04:46:45.904Z,8.43
2019-03-21T04:51:50.305Z,9.70
2019-03-21T04:56:54.646Z,11.80
2019-03-21T05:01:59.046Z,10.03
2019-03-21T05:07:03.387Z,9.53
2019-03-21T05:12:07.817Z,12.73
2019-03-21T05:17:12.188Z,11.03
2019-03-21T05:22:18.148Z,10.60
2019-03-21T05:27:22.535Z,13.93
2019-03-21T05:32:26.899Z,9.63
2019-03-21T05:37:31.252Z,10.50
2019-03-21T05:42:35.619Z,10.37
2019-03-21T05:47:39.993Z,15.97
2019-03-21T05:52:44.368Z,14.63
2019-03-21T05:57:48.742Z,17.03
2019-03-21T06:02:53.085Z,11.03
2019-03-21T06:08:09.723Z,12.80
2019-03-21T06:13:14.071Z,12.03
2019-03-21T06:18:38.009Z,10.67
2019-03-21T06:23:55.256Z,8.97
2019-03-21T06:28:59.632Z,10.10
2019-03-21T06:34:04.059Z,10.70
2019-03-21T06:39:09.290Z,12.43
2019-03-21T06:44:13.728Z,12.03
2019-03-21T06:49:18.067Z,12.03
2019-03-21T06:54:22.420Z,11.70
2019-03-21T06:59:26.818Z,11.07
2019-03-21T07:04:31.238Z,10.53
2019-03-21T07:09:35.591Z,13.87
2019-03-21T07:14:39.936Z,13.00
2019-03-21T07:19:44.328Z,11.03
2019-03-21T07:24:48.699Z,12.77
2019-03-21T07:29:53.098Z,11.80
2019-03-21T07:34:57.446Z,14.37
2019-03-21T07:40:01.826Z,15.13
2019-03-21T07:45:09.399Z,10.53
2019-03-21T07:50:14.876Z,12.87
2019-03-21T07:55:19.231Z,13.77
2019-03-21T08:00:23.629Z,12.23
2019-03-21T08:05:39.506Z,12.40
2019-03-21T08:10:34.251Z,12.83
2019-03-21T08:15:38.693Z,12.90
2019-03-21T08:20:43.042Z,13.47
2019-03-21T08:25:47.552Z,16.60
2019-03-21T08:31:06.666Z,13.15
2019-03-21T08:36:11.096Z,16.33
2019-03-21T08:41:15.492Z,15.70
2019-03-21T08:46:19.847Z,19.07
2019-03-21T08:51:24.237Z,14.93
2019-03-21T08:56:28.576Z,18.63
2019-03-21T09:01:33.935Z,16.33
2019-03-21T09:06:38.382Z,17.30
2019-03-21T09:11:43.389Z,14.85
2019-03-21T09:16:47.789Z,15.77
2019-03-21T09:21:52.149Z,16.87
2019-03-21T09:26:56.525Z,17.90
2019-03-21T09:32:00.918Z,16.40
2019-03-21T09:37:05.321Z,14.60
2019-03-21T09:42:09.697Z,15.43
2019-03-21T09:47:14.120Z,13.83
2019-03-21T09:52:18.500Z,17.57
2019-03-21T09:57:22.848Z,13.33
2019-03-21T10:02:27.236Z,13.33
2019-03-21T10:07:31.601Z,12.27
2019-03-21T10:12:35.966Z,14.10
2019-03-21T10:17:40.306Z,13.83
2019-03-21T10:22:44.700Z,13.30
2019-03-21T10:27:49.131Z,12.20
2019-03-21T10:32:53.545Z,12.27
2019-03-21T10:37:58.299Z,11.83
2019-03-21T10:43:02.752Z,13.23
2019-03-21T10:48:07.405Z,11.10
2019-03-21T10:53:11.814Z,13.53
2019-03-21T10:58:16.205Z,12.67
2019-03-21T11:03:20.605Z,11.87
2019-03-21T11:08:24.948Z,10.97
2019-03-21T11:13:29.385Z,11.60
2019-03-21T11:18:36.376Z,10.10
2019-03-21T11:23:39.794Z,13.73
2019-03-21T11:28:44.387Z,10.87
2019-03-21T11:33:48.856Z,10.37
2019-03-21T11:38:53.353Z,9.20
2019-03-21T11:43:57.682Z,9.23
2019-03-21T11:49:02.072Z,10.63
2019-03-21T11:54:06.437Z,8.93
2019-03-21T11:59:11.872Z,8.87
2019-03-21T12:04:16.247Z,14.10
2019-03-21T12:09:20.620Z,8.23
2019-03-21T12:14:24.972Z,10.17
2019-03-21T12:19:29.379Z,9.10
2019-03-21T12:24:33.729Z,9.57
2019-03-21T12:29:38.109Z,9.93
2019-03-21T12:34:42.517Z,9.40
2019-03-21T12:39:46.862Z,8.40
2019-03-21T12:44:51.199Z,8.13
2019-03-21T12:49:55.558Z,7.83
2019-03-21T12:54:59.933Z,12.23
2019-03-21T13:00:09.819Z,10.47
2019-03-21T13:05:30.596Z,8.47
2019-03-21T13:10:34.956Z,11.53
2019-03-21T13:15:39.343Z,7.57
2019-03-21T13:20:43.704Z,8.87
2019-03-21T13:25:48.054Z,7.47
2019-03-21T13:30:52.466Z,9.77
2019-03-21T13:35:56.835Z,11.07
2019-03-21T13:41:01.203Z,7.80
2019-03-21T13:46:05.647Z,7.93
2019-03-21T13:51:10.055Z,7.70
2019-03-21T13:56:14.441Z,8.97
2019-03-21T14:01:18.818Z,8.40
2019-03-21T14:06:23.219Z,9.47
2019-03-21T14:11:27.616Z,8.37
2019-03-21T14:16:32.120Z,8.70
2019-03-21T14:21:36.539Z,8.73
2019-03-21T14:26:40.931Z,10.50
2019-03-21T14:31:46.011Z,9.53
2019-03-21T14:36:50.371Z,10.57
2019-03-21T14:41:55.366Z,9.05
2019-03-21T14:46:59.707Z,9.27
2019-03-21T14:52:04.173Z,9.03
2019-03-21T14:57:08.550Z,10.50
2019-03-21T15:02:12.933Z,12.43
2019-03-21T15:07:18.753Z,10.67
2019-03-21T15:12:23.314Z,8.60
2019-03-21T15:17:27.709Z,8.93
2019-03-21T15:22:32.068Z,11.67
2019-03-21T15:27:36.787Z,10.60
2019-03-21T15:32:41.898Z,10.90
2019-03-21T15:37:46.471Z,9.30
2019-03-21T15:42:50.788Z,9.30
2019-03-21T15:47:55.212Z,9.67
2019-03-21T15:52:59.795Z,9.60
2019-03-21T15:58:04.304Z,10.00
2019-03-21T16:03:10.285Z,9.10
2019-03-21T16:08:14.725Z,9.13
2019-03-21T16:13:19.087Z,10.03
2019-03-21T16:18:23.447Z,10.80
2019-03-21T16:23:27.838Z,11.20
2019-03-21T16:28:32.254Z,9.80
2019-03-21T16:33:36.614Z,10.90
2019-03-21T16:38:41.000Z,11.73
2019-03-21T16:43:45.355Z,10.30
2019-03-21T16:48:49.736Z,14.27
2019-03-21T16:53:54.113Z,13.37
2019-03-21T16:58:59.017Z,13.83
2019-03-21T17:04:03.517Z,21.27
2019-03-21T17:09:08.811Z,14.17
2019-03-21T17:14:13.292Z,15.23
2019-03-21T17:19:17.679Z,13.90
2019-03-21T17:24:29.306Z,16.30
2019-03-21T17:29:29.188Z,17.27
2019-03-21T17:34:33.516Z,19.97
2019-03-21T17:39:37.959Z,15.73
2019-03-21T17:44:42.331Z,19.07
2019-03-21T17:49:46.826Z,16.73
2019-03-21T17:54:51.187Z,16.37
2019-03-21T17:59:55.550Z,18.67
2019-03-21T18:05:00.410Z,19.83
2019-03-21T18:10:07.772Z,18.80
2019-03-21T18:15:12.172Z,17.73
2019-03-21T18:20:17.693Z,16.47
2019-03-21T18:25:22.226Z,16.43
2019-03-21T18:30:26.676Z,16.37
2019-03-21T18:35:31.040Z,16.60
2019-03-21T18:40:35.410Z,15.93
2019-03-21T18:45:39.762Z,18.07
2019-03-21T18:50:48.918Z,20.90
2019-03-21T18:55:50.197Z,17.43
2019-03-21T19:00:55.521Z,18.17
2019-03-21T19:05:59.883Z,17.43
2019-03-21T19:11:04.387Z,14.67
2019-03-21T19:16:09.846Z,16.17
2019-03-21T19:21:14.178Z,16.97
2019-03-21T19:26:18.583Z,11.77
2019-03-21T19:31:22.994Z,16.83
2019-03-21T19:36:27.395Z,16.63
2019-03-21T19:41:33.582Z,14.97
2019-03-21T19:46:39.856Z,18.07
2019-03-21T19:51:45.335Z,18.83
2019-03-21T19:56:49.706Z,15.37
2019-03-21T20:01:54.290Z,18.33
2019-03-21T20:06:58.673Z,14.20
2019-03-21T20:12:03.237Z,16.53
2019-03-21T20:17:07.874Z,13.07
2019-03-21T20:22:12.442Z,15.83
2019-03-21T20:27:17.007Z,12.13
2019-03-21T20:32:21.449Z,12.60
2019-03-21T20:37:25.807Z,12.27
2019-03-21T20:42:30.196Z,11.37
2019-03-21T20:47:35.193Z,14.63
2019-03-21T20:52:39.930Z,14.47
2019-03-21T20:57:44.663Z,16.10
2019-03-21T21:02:50.140Z,14.53
2019-03-21T21:07:54.572Z,16.53
2019-03-21T21:12:59.083Z,16.17
2019-03-21T21:18:03.564Z,16.20
2019-03-21T21:23:07.931Z,17.77
2019-03-21T21:28:12.759Z,15.03
2019-03-21T21:33:17.318Z,13.80
2019-03-21T21:38:22.087Z,16.80
2019-03-21T21:43:26.783Z,17.27
2019-03-21T21:48:31.161Z,15.60
2019-03-21T21:53:35.517Z,19.00
2019-03-21T21:58:39.865Z,18.77
2019-03-21T22:03:44.260Z,16.57
2019-03-21T22:08:48.642Z,19.07
2019-03-21T22:13:53.022Z,15.93
2019-03-21T22:18:57.444Z,17.67
2019-03-21T22:24:01.895Z,19.30
2019-03-21T22:29:06.232Z,15.87
2019-03-21T22:34:10.592Z,18.43
2019-03-21T22:39:14.976Z,17.93
2019-03-21T22:44:19.319Z,20.23
2019-03-21T22:49:23.677Z,19.40
2019-03-21T22:54:28.022Z,17.13
2019-03-21T22:59:32.404Z,20.77
2019-03-21T23:04:37.608Z,20.00
2019-03-21T23:09:41.995Z,17.37
2019-03-21T23:14:46.361Z,19.60
2019-03-21T23:19:50.816Z,18.57
2019-03-21T23:24:55.231Z,21.00
2019-03-21T23:29:59.594Z,17.60
2019-03-21T23:35:05.892Z,20.27
2019-03-21T23:40:13.455Z,17.50
2019-03-21T23:45:19.968Z,16.87
2019-03-21T23:50:23.938Z,17.30
2019-03-21T23:55:28.337Z,18.57
